sensor_id;sensor_type;location;lat;lon;timestamp;temperature;humidity
18177;DHT22;9213;50.858;3.964;2023-09-18T00:01:20;24.90;59.60
18177;DHT22;9213;50.858;3.964;2023-09-18T00:03:47;24.90;59.60
18177;DHT22;9213;50.858;3.964;2023-09-18T00:06:15;24.80;59.70
18177;DHT22;9213;50.858;3.964;2023-09-18T00:08:42;24.80;60.00
18177;DHT22;9213;50.858;3.964;2023-09-18T00:11:09;24.70;60.30
18177;DHT22;9213;50.858;3.964;2023-09-18T00:13:37;24.70;60.40
18177;DHT22;9213;50.858;3.964;2023-09-18T00:16:04;24.70;60.50
18177;DHT22;9213;50.858;3.964;2023-09-18T00:18:31;24.70;60.60
18177;DHT22;9213;50.858;3.964;2023-09-18T00:20:58;24.70;60.70
18177;DHT22;9213;50.858;3.964;2023-09-18T00:23:26;24.70;60.70
18177;DHT22;9213;50.858;3.964;2023-09-18T00:25:53;24.70;60.80
18177;DHT22;9213;50.858;3.964;2023-09-18T00:28:20;24.70;61.00
18177;DHT22;9213;50.858;3.964;2023-09-18T00:30:48;24.50;62.10
18177;DHT22;9213;50.858;3.964;2023-09-18T00:33:16;24.50;61.80
18177;DHT22;9213;50.858;3.964;2023-09-18T00:35:46;24.40;62.00
18177;DHT22;9213;50.858;3.964;2023-09-18T00:38:13;24.30;62.50
18177;DHT22;9213;50.858;3.964;2023-09-18T00:40:41;24.20;62.80
18177;DHT22;9213;50.858;3.964;2023-09-18T00:43:08;24.10;63.40
18177;DHT22;9213;50.858;3.964;2023-09-18T00:45:40;24.10;63.60
18177;DHT22;9213;50.858;3.964;2023-09-18T00:48:08;24.00;63.80
18177;DHT22;9213;50.858;3.964;2023-09-18T00:50:36;24.00;64.10
18177;DHT22;9213;50.858;3.964;2023-09-18T00:53:04;23.90;64.50
18177;DHT22;9213;50.858;3.964;2023-09-18T00:55:34;24.00;64.70
18177;DHT22;9213;50.858;3.964;2023-09-18T00:58:04;24.00;64.50
18177;DHT22;9213;50.858;3.964;2023-09-18T01:00:31;24.00;64.70
18177;DHT22;9213;50.858;3.964;2023-09-18T01:02:58;24.10;64.60
18177;DHT22;9213;50.858;3.964;2023-09-18T01:05:27;24.10;64.20
18177;DHT22;9213;50.858;3.964;2023-09-18T01:07:54;24.10;64.50
18177;DHT22;9213;50.858;3.964;2023-09-18T01:10:24;24.10;64.20
18177;DHT22;9213;50.858;3.964;2023-09-18T01:13:00;24.10;65.00
18177;DHT22;9213;50.858;3.964;2023-09-18T01:15:33;24.10;64.00
18177;DHT22;9213;50.858;3.964;2023-09-18T01:18:02;24.10;64.20
18177;DHT22;9213;50.858;3.964;2023-09-18T01:20:29;24.00;64.10
18177;DHT22;9213;50.858;3.964;2023-09-18T01:22:58;24.00;64.40
18177;DHT22;9213;50.858;3.964;2023-09-18T01:25:25;24.00;64.40
18177;DHT22;9213;50.858;3.964;2023-09-18T01:27:51;24.00;64.10
18177;DHT22;9213;50.858;3.964;2023-09-18T01:30:18;24.00;64.00
18177;DHT22;9213;50.858;3.964;2023-09-18T01:32:46;24.00;63.90
18177;DHT22;9213;50.858;3.964;2023-09-18T01:35:14;23.90;63.70
18177;DHT22;9213;50.858;3.964;2023-09-18T01:37:41;23.90;63.80
18177;DHT22;9213;50.858;3.964;2023-09-18T01:40:11;23.80;63.90
18177;DHT22;9213;50.858;3.964;2023-09-18T01:42:39;23.70;64.50
18177;DHT22;9213;50.858;3.964;2023-09-18T01:45:08;23.70;64.20
18177;DHT22;9213;50.858;3.964;2023-09-18T01:47:35;23.70;64.30
18177;DHT22;9213;50.858;3.964;2023-09-18T01:50:03;23.60;64.30
18177;DHT22;9213;50.858;3.964;2023-09-18T01:52:31;23.60;64.50
18177;DHT22;9213;50.858;3.964;2023-09-18T01:55:00;23.50;65.00
18177;DHT22;9213;50.858;3.964;2023-09-18T01:57:28;23.50;65.00
18177;DHT22;9213;50.858;3.964;2023-09-18T01:59:55;23.40;64.90
18177;DHT22;9213;50.858;3.964;2023-09-18T02:02:22;23.50;64.70
18177;DHT22;9213;50.858;3.964;2023-09-18T02:04:49;23.50;64.60
18177;DHT22;9213;50.858;3.964;2023-09-18T02:07:16;23.40;64.40
18177;DHT22;9213;50.858;3.964;2023-09-18T02:09:43;23.40;64.40
18177;DHT22;9213;50.858;3.964;2023-09-18T02:12:10;23.40;64.60
18177;DHT22;9213;50.858;3.964;2023-09-18T02:14:44;23.30;64.60
18177;DHT22;9213;50.858;3.964;2023-09-18T02:17:11;23.40;64.50
18177;DHT22;9213;50.858;3.964;2023-09-18T02:19:38;23.40;64.50
18177;DHT22;9213;50.858;3.964;2023-09-18T02:22:05;23.30;64.60
18177;DHT22;9213;50.858;3.964;2023-09-18T02:24:32;23.30;64.70
18177;DHT22;9213;50.858;3.964;2023-09-18T02:26:59;23.30;64.50
18177;DHT22;9213;50.858;3.964;2023-09-18T02:29:26;23.30;64.50
18177;DHT22;9213;50.858;3.964;2023-09-18T02:31:54;23.30;64.60
18177;DHT22;9213;50.858;3.964;2023-09-18T02:34:21;23.30;64.70
18177;DHT22;9213;50.858;3.964;2023-09-18T02:36:48;23.30;64.80
18177;DHT22;9213;50.858;3.964;2023-09-18T02:39:15;23.30;64.90
18177;DHT22;9213;50.858;3.964;2023-09-18T02:41:42;23.30;65.00
18177;DHT22;9213;50.858;3.964;2023-09-18T02:44:09;23.30;65.00
18177;DHT22;9213;50.858;3.964;2023-09-18T02:46:37;23.30;65.10
18177;DHT22;9213;50.858;3.964;2023-09-18T02:49:05;23.30;65.10
18177;DHT22;9213;50.858;3.964;2023-09-18T02:51:32;23.40;64.80
18177;DHT22;9213;50.858;3.964;2023-09-18T02:53:59;23.40;64.70
18177;DHT22;9213;50.858;3.964;2023-09-18T02:56:26;23.40;64.80
18177;DHT22;9213;50.858;3.964;2023-09-18T02:58:53;23.40;64.90
18177;DHT22;9213;50.858;3.964;2023-09-18T03:01:20;23.40;64.80
18177;DHT22;9213;50.858;3.964;2023-09-18T03:03:47;23.40;64.70
18177;DHT22;9213;50.858;3.964;2023-09-18T03:06:15;23.40;64.70
18177;DHT22;9213;50.858;3.964;2023-09-18T03:08:43;23.40;64.70
18177;DHT22;9213;50.858;3.964;2023-09-18T03:11:13;23.40;64.70
18177;DHT22;9213;50.858;3.964;2023-09-18T03:13:44;23.40;64.80
18177;DHT22;9213;50.858;3.964;2023-09-18T03:16:12;23.40;64.80
18177;DHT22;9213;50.858;3.964;2023-09-18T03:18:38;23.40;64.60
18177;DHT22;9213;50.858;3.964;2023-09-18T03:21:05;23.40;64.60
18177;DHT22;9213;50.858;3.964;2023-09-18T03:23:34;23.40;64.60
18177;DHT22;9213;50.858;3.964;2023-09-18T03:26:00;23.40;64.70
18177;DHT22;9213;50.858;3.964;2023-09-18T03:28:28;23.40;64.60
18177;DHT22;9213;50.858;3.964;2023-09-18T03:30:55;23.40;64.50
18177;DHT22;9213;50.858;3.964;2023-09-18T03:33:22;23.40;64.40
18177;DHT22;9213;50.858;3.964;2023-09-18T03:35:50;23.40;64.40
18177;DHT22;9213;50.858;3.964;2023-09-18T03:38:17;23.40;64.50
18177;DHT22;9213;50.858;3.964;2023-09-18T03:40:45;23.40;64.60
18177;DHT22;9213;50.858;3.964;2023-09-18T03:43:12;23.40;64.60
18177;DHT22;9213;50.858;3.964;2023-09-18T03:45:39;23.30;64.50
18177;DHT22;9213;50.858;3.964;2023-09-18T03:48:07;23.40;64.50
18177;DHT22;9213;50.858;3.964;2023-09-18T03:50:34;23.40;64.50
18177;DHT22;9213;50.858;3.964;2023-09-18T03:53:01;23.40;64.40
18177;DHT22;9213;50.858;3.964;2023-09-18T03:55:28;23.40;64.40
18177;DHT22;9213;50.858;3.964;2023-09-18T03:57:57;23.40;64.20
18177;DHT22;9213;50.858;3.964;2023-09-18T04:00:24;23.30;64.10
18177;DHT22;9213;50.858;3.964;2023-09-18T04:02:50;23.30;64.10
18177;DHT22;9213;50.858;3.964;2023-09-18T04:05:17;23.30;64.10
18177;DHT22;9213;50.858;3.964;2023-09-18T04:07:44;23.20;63.80
18177;DHT22;9213;50.858;3.964;2023-09-18T04:10:12;23.20;63.70
18177;DHT22;9213;50.858;3.964;2023-09-18T04:12:44;23.10;63.70
18177;DHT22;9213;50.858;3.964;2023-09-18T04:15:14;23.10;63.70
18177;DHT22;9213;50.858;3.964;2023-09-18T04:17:42;23.00;63.70
18177;DHT22;9213;50.858;3.964;2023-09-18T04:20:10;23.00;63.80
18177;DHT22;9213;50.858;3.964;2023-09-18T04:22:44;22.90;63.80
18177;DHT22;9213;50.858;3.964;2023-09-18T04:25:11;22.90;63.90
18177;DHT22;9213;50.858;3.964;2023-09-18T04:27:39;22.90;63.90
18177;DHT22;9213;50.858;3.964;2023-09-18T04:30:07;22.80;63.80
18177;DHT22;9213;50.858;3.964;2023-09-18T04:32:37;22.80;63.80
18177;DHT22;9213;50.858;3.964;2023-09-18T04:35:04;22.80;63.90
18177;DHT22;9213;50.858;3.964;2023-09-18T04:37:35;22.80;64.00
18177;DHT22;9213;50.858;3.964;2023-09-18T04:40:03;22.70;64.00
18177;DHT22;9213;50.858;3.964;2023-09-18T04:42:30;22.70;64.20
18177;DHT22;9213;50.858;3.964;2023-09-18T04:44:57;22.70;64.20
18177;DHT22;9213;50.858;3.964;2023-09-18T04:47:24;22.70;64.20
18177;DHT22;9213;50.858;3.964;2023-09-18T04:49:52;22.70;64.10
18177;DHT22;9213;50.858;3.964;2023-09-18T04:52:19;22.60;64.00
18177;DHT22;9213;50.858;3.964;2023-09-18T04:54:46;22.60;63.90
18177;DHT22;9213;50.858;3.964;2023-09-18T04:57:12;22.60;64.00
18177;DHT22;9213;50.858;3.964;2023-09-18T04:59:39;22.60;63.90
18177;DHT22;9213;50.858;3.964;2023-09-18T05:02:06;22.60;63.80
18177;DHT22;9213;50.858;3.964;2023-09-18T05:04:33;22.60;63.80
18177;DHT22;9213;50.858;3.964;2023-09-18T05:07:02;22.50;63.70
18177;DHT22;9213;50.858;3.964;2023-09-18T05:09:29;22.50;63.80
18177;DHT22;9213;50.858;3.964;2023-09-18T05:11:56;22.50;63.60
18177;DHT22;9213;50.858;3.964;2023-09-18T05:14:23;22.50;63.70
18177;DHT22;9213;50.858;3.964;2023-09-18T05:16:50;22.40;63.70
18177;DHT22;9213;50.858;3.964;2023-09-18T05:19:17;22.40;63.70
18177;DHT22;9213;50.858;3.964;2023-09-18T05:21:44;22.40;63.80
18177;DHT22;9213;50.858;3.964;2023-09-18T05:24:13;22.40;63.90
18177;DHT22;9213;50.858;3.964;2023-09-18T05:26:40;22.40;64.00
18177;DHT22;9213;50.858;3.964;2023-09-18T05:29:07;22.40;63.90
18177;DHT22;9213;50.858;3.964;2023-09-18T05:31:35;22.30;63.90
18177;DHT22;9213;50.858;3.964;2023-09-18T05:34:03;22.30;63.90
18177;DHT22;9213;50.858;3.964;2023-09-18T05:36:30;22.30;63.80
18177;DHT22;9213;50.858;3.964;2023-09-18T05:38:56;22.30;63.70
18177;DHT22;9213;50.858;3.964;2023-09-18T05:41:25;22.20;63.70
18177;DHT22;9213;50.858;3.964;2023-09-18T05:43:54;22.20;63.70
18177;DHT22;9213;50.858;3.964;2023-09-18T05:46:21;22.20;63.70
18177;DHT22;9213;50.858;3.964;2023-09-18T05:48:48;22.20;63.80
18177;DHT22;9213;50.858;3.964;2023-09-18T05:51:15;22.20;63.90
18177;DHT22;9213;50.858;3.964;2023-09-18T05:53:42;22.20;63.80
18177;DHT22;9213;50.858;3.964;2023-09-18T05:56:08;22.20;63.80
18177;DHT22;9213;50.858;3.964;2023-09-18T05:58:37;22.20;63.60
18177;DHT22;9213;50.858;3.964;2023-09-18T06:01:04;22.20;63.50
18177;DHT22;9213;50.858;3.964;2023-09-18T06:03:31;22.20;63.40
18177;DHT22;9213;50.858;3.964;2023-09-18T06:06:01;22.30;63.30
18177;DHT22;9213;50.858;3.964;2023-09-18T06:08:28;22.30;63.20
18177;DHT22;9213;50.858;3.964;2023-09-18T06:10:56;22.30;63.00
18177;DHT22;9213;50.858;3.964;2023-09-18T06:13:24;22.30;63.00
18177;DHT22;9213;50.858;3.964;2023-09-18T06:15:53;22.30;62.80
18177;DHT22;9213;50.858;3.964;2023-09-18T06:18:22;22.40;62.70
18177;DHT22;9213;50.858;3.964;2023-09-18T06:20:49;22.40;62.60
18177;DHT22;9213;50.858;3.964;2023-09-18T06:23:16;22.40;62.40
18177;DHT22;9213;50.858;3.964;2023-09-18T06:25:43;22.40;62.30
18177;DHT22;9213;50.858;3.964;2023-09-18T06:28:10;22.40;62.10
18177;DHT22;9213;50.858;3.964;2023-09-18T06:30:38;22.40;62.00
18177;DHT22;9213;50.858;3.964;2023-09-18T06:33:06;22.40;62.00
18177;DHT22;9213;50.858;3.964;2023-09-18T06:35:33;22.40;62.00
18177;DHT22;9213;50.858;3.964;2023-09-18T06:38:00;22.40;62.00
18177;DHT22;9213;50.858;3.964;2023-09-18T06:40:27;22.40;62.00
18177;DHT22;9213;50.858;3.964;2023-09-18T06:42:58;22.40;62.50
18177;DHT22;9213;50.858;3.964;2023-09-18T06:45:25;22.60;62.40
18177;DHT22;9213;50.858;3.964;2023-09-18T06:47:53;22.70;61.60
18177;DHT22;9213;50.858;3.964;2023-09-18T06:50:21;22.80;61.00
18177;DHT22;9213;50.858;3.964;2023-09-18T06:52:48;22.90;60.60
18177;DHT22;9213;50.858;3.964;2023-09-18T06:55:15;23.00;60.60
18177;DHT22;9213;50.858;3.964;2023-09-18T06:57:43;23.00;60.40
18177;DHT22;9213;50.858;3.964;2023-09-18T07:00:11;23.10;60.10
18177;DHT22;9213;50.858;3.964;2023-09-18T07:02:40;23.20;59.80
18177;DHT22;9213;50.858;3.964;2023-09-18T07:05:07;23.30;59.60
18177;DHT22;9213;50.858;3.964;2023-09-18T07:07:35;23.30;59.30
18177;DHT22;9213;50.858;3.964;2023-09-18T07:10:02;23.40;59.00
18177;DHT22;9213;50.858;3.964;2023-09-18T07:12:29;23.40;59.00
18177;DHT22;9213;50.858;3.964;2023-09-18T07:14:59;23.50;60.60
18177;DHT22;9213;50.858;3.964;2023-09-18T07:17:28;24.10;60.60
18177;DHT22;9213;50.858;3.964;2023-09-18T07:19:55;25.20;58.40
18177;DHT22;9213;50.858;3.964;2023-09-18T07:22:22;26.20;54.00
18177;DHT22;9213;50.858;3.964;2023-09-18T07:24:50;26.90;50.60
18177;DHT22;9213;50.858;3.964;2023-09-18T07:27:17;27.20;50.00
18177;DHT22;9213;50.858;3.964;2023-09-18T07:29:44;27.40;49.10
18177;DHT22;9213;50.858;3.964;2023-09-18T07:32:11;27.70;48.10
18177;DHT22;9213;50.858;3.964;2023-09-18T07:34:39;27.80;47.00
18177;DHT22;9213;50.858;3.964;2023-09-18T07:37:06;27.60;46.80
18177;DHT22;9213;50.858;3.964;2023-09-18T07:39:33;27.30;47.00
18177;DHT22;9213;50.858;3.964;2023-09-18T07:42:02;26.90;47.30
18177;DHT22;9213;50.858;3.964;2023-09-18T07:44:29;26.50;48.30
18177;DHT22;9213;50.858;3.964;2023-09-18T07:46:56;26.10;49.50
18177;DHT22;9213;50.858;3.964;2023-09-18T07:49:23;25.70;50.20
18177;DHT22;9213;50.858;3.964;2023-09-18T07:51:50;25.40;51.40
18177;DHT22;9213;50.858;3.964;2023-09-18T07:54:17;25.10;52.40
18177;DHT22;9213;50.858;3.964;2023-09-18T07:56:43;24.90;53.20
18177;DHT22;9213;50.858;3.964;2023-09-18T07:59:12;24.80;53.70
18177;DHT22;9213;50.858;3.964;2023-09-18T08:01:40;24.80;54.10
18177;DHT22;9213;50.858;3.964;2023-09-18T08:04:07;24.70;54.00
18177;DHT22;9213;50.858;3.964;2023-09-18T08:06:34;24.70;54.10
18177;DHT22;9213;50.858;3.964;2023-09-18T08:09:01;24.60;54.10
18177;DHT22;9213;50.858;3.964;2023-09-18T08:11:30;24.50;54.30
18177;DHT22;9213;50.858;3.964;2023-09-18T08:13:58;24.40;54.50
18177;DHT22;9213;50.858;3.964;2023-09-18T08:16:26;24.30;54.90
18177;DHT22;9213;50.858;3.964;2023-09-18T08:18:53;24.20;55.10
18177;DHT22;9213;50.858;3.964;2023-09-18T08:21:22;24.20;55.30
18177;DHT22;9213;50.858;3.964;2023-09-18T08:23:50;24.20;56.00
18177;DHT22;9213;50.858;3.964;2023-09-18T08:26:17;24.10;55.50
18177;DHT22;9213;50.858;3.964;2023-09-18T08:28:44;24.10;55.60
18177;DHT22;9213;50.858;3.964;2023-09-18T08:31:10;24.10;55.70
18177;DHT22;9213;50.858;3.964;2023-09-18T08:33:39;24.10;55.60
18177;DHT22;9213;50.858;3.964;2023-09-18T08:36:06;24.10;55.60
18177;DHT22;9213;50.858;3.964;2023-09-18T08:38:33;24.20;55.60
18177;DHT22;9213;50.858;3.964;2023-09-18T08:41:00;24.20;55.70
18177;DHT22;9213;50.858;3.964;2023-09-18T08:43:27;24.20;55.70
18177;DHT22;9213;50.858;3.964;2023-09-18T08:45:56;24.20;55.60
18177;DHT22;9213;50.858;3.964;2023-09-18T08:48:28;24.20;55.30
18177;DHT22;9213;50.858;3.964;2023-09-18T08:51:02;24.30;55.20
18177;DHT22;9213;50.858;3.964;2023-09-18T08:53:30;24.20;55.20
18177;DHT22;9213;50.858;3.964;2023-09-18T08:55:58;24.20;55.40
18177;DHT22;9213;50.858;3.964;2023-09-18T08:58:28;24.20;55.50
18177;DHT22;9213;50.858;3.964;2023-09-18T09:00:55;24.20;55.30
18177;DHT22;9213;50.858;3.964;2023-09-18T09:03:23;24.30;55.40
18177;DHT22;9213;50.858;3.964;2023-09-18T09:05:50;24.30;55.50
18177;DHT22;9213;50.858;3.964;2023-09-18T09:08:18;24.40;55.30
18177;DHT22;9213;50.858;3.964;2023-09-18T09:10:46;24.50;55.10
18177;DHT22;9213;50.858;3.964;2023-09-18T09:13:14;24.50;54.70
18177;DHT22;9213;50.858;3.964;2023-09-18T09:15:44;24.60;54.80
18177;DHT22;9213;50.858;3.964;2023-09-18T09:18:13;24.60;54.70
18177;DHT22;9213;50.858;3.964;2023-09-18T09:20:41;24.70;54.50
18177;DHT22;9213;50.858;3.964;2023-09-18T09:23:20;24.70;54.40
18177;DHT22;9213;50.858;3.964;2023-09-18T09:25:47;24.60;54.30
18177;DHT22;9213;50.858;3.964;2023-09-18T09:28:14;24.60;54.10
18177;DHT22;9213;50.858;3.964;2023-09-18T09:30:42;24.60;54.10
18177;DHT22;9213;50.858;3.964;2023-09-18T09:33:12;24.50;54.30
18177;DHT22;9213;50.858;3.964;2023-09-18T09:35:39;24.50;54.50
18177;DHT22;9213;50.858;3.964;2023-09-18T09:38:10;24.40;54.40
18177;DHT22;9213;50.858;3.964;2023-09-18T09:40:40;24.30;54.60
18177;DHT22;9213;50.858;3.964;2023-09-18T09:43:09;24.30;54.70
18177;DHT22;9213;50.858;3.964;2023-09-18T09:45:40;24.20;54.80
18177;DHT22;9213;50.858;3.964;2023-09-18T09:48:07;24.10;55.20
18177;DHT22;9213;50.858;3.964;2023-09-18T09:50:44;24.10;55.10
18177;DHT22;9213;50.858;3.964;2023-09-18T09:53:12;24.20;55.10
18177;DHT22;9213;50.858;3.964;2023-09-18T09:55:41;24.10;55.00
18177;DHT22;9213;50.858;3.964;2023-09-18T09:58:09;24.20;54.90
18177;DHT22;9213;50.858;3.964;2023-09-18T10:00:39;24.10;54.60
18177;DHT22;9213;50.858;3.964;2023-09-18T10:03:10;24.10;54.70
18177;DHT22;9213;50.858;3.964;2023-09-18T10:05:38;24.10;54.30
18177;DHT22;9213;50.858;3.964;2023-09-18T10:08:08;24.10;54.30
18177;DHT22;9213;50.858;3.964;2023-09-18T10:10:37;24.10;54.40
18177;DHT22;9213;50.858;3.964;2023-09-18T10:13:17;24.10;54.70
18177;DHT22;9213;50.858;3.964;2023-09-18T10:15:49;24.20;54.90
18177;DHT22;9213;50.858;3.964;2023-09-18T10:18:27;24.30;54.80
18177;DHT22;9213;50.858;3.964;2023-09-18T10:21:00;24.40;54.70
18177;DHT22;9213;50.858;3.964;2023-09-18T10:23:38;24.70;54.60
18177;DHT22;9213;50.858;3.964;2023-09-18T10:26:07;25.10;53.90
18177;DHT22;9213;50.858;3.964;2023-09-18T10:28:38;25.60;52.90
18177;DHT22;9213;50.858;3.964;2023-09-18T10:31:07;26.10;51.80
18177;DHT22;9213;50.858;3.964;2023-09-18T10:33:35;26.60;50.00
18177;DHT22;9213;50.858;3.964;2023-09-18T10:36:04;26.90;48.60
18177;DHT22;9213;50.858;3.964;2023-09-18T10:38:33;27.20;48.50
18177;DHT22;9213;50.858;3.964;2023-09-18T10:41:02;27.40;47.00
18177;DHT22;9213;50.858;3.964;2023-09-18T10:43:30;27.60;46.50
18177;DHT22;9213;50.858;3.964;2023-09-18T10:45:58;27.60;45.20
18177;DHT22;9213;50.858;3.964;2023-09-18T10:48:27;27.70;45.20
18177;DHT22;9213;50.858;3.964;2023-09-18T10:50:54;27.70;44.70
18177;DHT22;9213;50.858;3.964;2023-09-18T10:53:21;27.70;44.30
18177;DHT22;9213;50.858;3.964;2023-09-18T10:55:49;27.60;44.30
18177;DHT22;9213;50.858;3.964;2023-09-18T10:58:24;27.50;44.80
18177;DHT22;9213;50.858;3.964;2023-09-18T11:00:53;27.40;45.30
18177;DHT22;9213;50.858;3.964;2023-09-18T11:03:23;27.30;45.40
18177;DHT22;9213;50.858;3.964;2023-09-18T11:06:03;27.20;45.40
18177;DHT22;9213;50.858;3.964;2023-09-18T11:08:32;27.30;45.60
18177;DHT22;9213;50.858;3.964;2023-09-18T11:11:06;27.30;45.20
18177;DHT22;9213;50.858;3.964;2023-09-18T11:13:39;27.30;45.80
18177;DHT22;9213;50.858;3.964;2023-09-18T11:16:34;27.40;45.40
18177;DHT22;9213;50.858;3.964;2023-09-18T11:19:12;27.60;45.80
18177;DHT22;9213;50.858;3.964;2023-09-18T11:21:40;27.90;45.10
18177;DHT22;9213;50.858;3.964;2023-09-18T11:24:16;28.00;44.70
18177;DHT22;9213;50.858;3.964;2023-09-18T11:26:45;28.20;44.70
18177;DHT22;9213;50.858;3.964;2023-09-18T11:29:14;28.30;43.70
18177;DHT22;9213;50.858;3.964;2023-09-18T11:31:44;28.40;44.10
18177;DHT22;9213;50.858;3.964;2023-09-18T11:34:13;28.50;43.30
18177;DHT22;9213;50.858;3.964;2023-09-18T11:36:41;28.60;42.80
18177;DHT22;9213;50.858;3.964;2023-09-18T11:39:08;28.60;42.40
18177;DHT22;9213;50.858;3.964;2023-09-18T11:41:37;28.70;42.60
18177;DHT22;9213;50.858;3.964;2023-09-18T11:47:14;28.90;42.00
18177;DHT22;9213;50.858;3.964;2023-09-18T11:49:50;28.90;41.70
18177;DHT22;9213;50.858;3.964;2023-09-18T11:52:20;29.20;41.80
18177;DHT22;9213;50.858;3.964;2023-09-18T11:54:48;29.20;41.10
18177;DHT22;9213;50.858;3.964;2023-09-18T11:57:15;29.20;40.40
18177;DHT22;9213;50.858;3.964;2023-09-18T11:59:43;29.20;40.70
18177;DHT22;9213;50.858;3.964;2023-09-18T12:02:12;29.20;40.50
18177;DHT22;9213;50.858;3.964;2023-09-18T12:04:46;29.20;40.60
18177;DHT22;9213;50.858;3.964;2023-09-18T12:07:15;29.20;40.60
18177;DHT22;9213;50.858;3.964;2023-09-18T12:09:42;29.30;40.10
18177;DHT22;9213;50.858;3.964;2023-09-18T12:12:09;29.40;39.10
18177;DHT22;9213;50.858;3.964;2023-09-18T12:14:40;29.50;39.40
18177;DHT22;9213;50.858;3.964;2023-09-18T12:17:08;29.60;39.60
18177;DHT22;9213;50.858;3.964;2023-09-18T12:19:35;29.70;39.10
18177;DHT22;9213;50.858;3.964;2023-09-18T12:22:02;29.80;38.70
18177;DHT22;9213;50.858;3.964;2023-09-18T12:24:31;29.80;38.40
18177;DHT22;9213;50.858;3.964;2023-09-18T12:26:58;29.80;38.60
18177;DHT22;9213;50.858;3.964;2023-09-18T12:29:26;29.80;38.50
18177;DHT22;9213;50.858;3.964;2023-09-18T12:31:53;29.80;38.20
18177;DHT22;9213;50.858;3.964;2023-09-18T12:34:21;29.80;38.40
18177;DHT22;9213;50.858;3.964;2023-09-18T12:36:50;29.90;38.60
18177;DHT22;9213;50.858;3.964;2023-09-18T12:39:17;30.00;38.60
18177;DHT22;9213;50.858;3.964;2023-09-18T12:41:47;30.00;38.80
18177;DHT22;9213;50.858;3.964;2023-09-18T12:44:14;30.10;38.20
18177;DHT22;9213;50.858;3.964;2023-09-18T12:46:42;30.10;37.90
18177;DHT22;9213;50.858;3.964;2023-09-18T12:49:19;30.10;37.60
18177;DHT22;9213;50.858;3.964;2023-09-18T12:51:56;30.10;38.30
18177;DHT22;9213;50.858;3.964;2023-09-18T12:54:37;30.20;38.30
18177;DHT22;9213;50.858;3.964;2023-09-18T12:57:06;30.30;38.00
18177;DHT22;9213;50.858;3.964;2023-09-18T12:59:34;30.30;37.50
18177;DHT22;9213;50.858;3.964;2023-09-18T13:02:02;30.40;37.50
18177;DHT22;9213;50.858;3.964;2023-09-18T13:04:30;30.50;36.90
18177;DHT22;9213;50.858;3.964;2023-09-18T13:07:09;30.60;35.80
18177;DHT22;9213;50.858;3.964;2023-09-18T13:09:36;30.70;35.50
18177;DHT22;9213;50.858;3.964;2023-09-18T13:12:06;30.60;35.30
18177;DHT22;9213;50.858;3.964;2023-09-18T13:14:57;30.60;35.30
18177;DHT22;9213;50.858;3.964;2023-09-18T13:17:24;30.70;36.00
18177;DHT22;9213;50.858;3.964;2023-09-18T13:19:51;30.70;35.70
18177;DHT22;9213;50.858;3.964;2023-09-18T13:22:23;30.70;35.00
18177;DHT22;9213;50.858;3.964;2023-09-18T13:24:55;30.70;34.90
18177;DHT22;9213;50.858;3.964;2023-09-18T13:27:24;30.60;35.00
18177;DHT22;9213;50.858;3.964;2023-09-18T13:29:52;30.50;34.90
18177;DHT22;9213;50.858;3.964;2023-09-18T13:32:20;30.40;34.80
18177;DHT22;9213;50.858;3.964;2023-09-18T13:34:47;30.40;34.80
18177;DHT22;9213;50.858;3.964;2023-09-18T13:37:14;30.40;34.70
18177;DHT22;9213;50.858;3.964;2023-09-18T13:39:42;30.40;34.50
18177;DHT22;9213;50.858;3.964;2023-09-18T13:42:11;30.40;33.80
18177;DHT22;9213;50.858;3.964;2023-09-18T13:44:39;30.40;33.60
18177;DHT22;9213;50.858;3.964;2023-09-18T13:47:06;30.30;34.10
18177;DHT22;9213;50.858;3.964;2023-09-18T13:49:33;30.30;34.00
18177;DHT22;9213;50.858;3.964;2023-09-18T13:52:00;30.30;33.80
18177;DHT22;9213;50.858;3.964;2023-09-18T13:54:27;30.10;34.10
18177;DHT22;9213;50.858;3.964;2023-09-18T13:56:55;30.00;36.10
18177;DHT22;9213;50.858;3.964;2023-09-18T13:59:22;29.70;36.80
18177;DHT22;9213;50.858;3.964;2023-09-18T14:01:50;29.40;37.80
18177;DHT22;9213;50.858;3.964;2023-09-18T14:04:17;29.00;39.10
18177;DHT22;9213;50.858;3.964;2023-09-18T14:06:45;28.60;40.10
18177;DHT22;9213;50.858;3.964;2023-09-18T14:09:12;28.20;41.50
18177;DHT22;9213;50.858;3.964;2023-09-18T14:11:38;27.90;42.40
18177;DHT22;9213;50.858;3.964;2023-09-18T14:14:05;27.70;43.30
18177;DHT22;9213;50.858;3.964;2023-09-18T14:16:33;27.50;43.80
18177;DHT22;9213;50.858;3.964;2023-09-18T14:19:01;27.50;44.90
18177;DHT22;9213;50.858;3.964;2023-09-18T14:21:28;27.40;44.70
18177;DHT22;9213;50.858;3.964;2023-09-18T14:23:59;27.50;44.40
18177;DHT22;9213;50.858;3.964;2023-09-18T14:26:26;27.40;43.40
18177;DHT22;9213;50.858;3.964;2023-09-18T14:28:53;27.30;43.40
18177;DHT22;9213;50.858;3.964;2023-09-18T14:31:20;27.10;43.80
18177;DHT22;9213;50.858;3.964;2023-09-18T14:33:47;26.90;43.70
18177;DHT22;9213;50.858;3.964;2023-09-18T14:36:15;26.60;44.80
18177;DHT22;9213;50.858;3.964;2023-09-18T14:38:42;26.30;45.40
18177;DHT22;9213;50.858;3.964;2023-09-18T14:41:09;26.10;46.60
18177;DHT22;9213;50.858;3.964;2023-09-18T14:43:36;25.90;47.10
18177;DHT22;9213;50.858;3.964;2023-09-18T14:46:03;25.70;48.00
18177;DHT22;9213;50.858;3.964;2023-09-18T14:48:30;25.60;48.70
18177;DHT22;9213;50.858;3.964;2023-09-18T14:50:58;25.60;49.70
18177;DHT22;9213;50.858;3.964;2023-09-18T14:53:26;25.60;49.70
18177;DHT22;9213;50.858;3.964;2023-09-18T14:55:53;25.60;49.70
18177;DHT22;9213;50.858;3.964;2023-09-18T14:58:22;25.80;49.50
18177;DHT22;9213;50.858;3.964;2023-09-18T15:00:49;25.90;48.90
18177;DHT22;9213;50.858;3.964;2023-09-18T15:03:16;26.10;49.10
18177;DHT22;9213;50.858;3.964;2023-09-18T15:05:43;26.20;48.40
18177;DHT22;9213;50.858;3.964;2023-09-18T15:08:10;26.40;47.30
18177;DHT22;9213;50.858;3.964;2023-09-18T15:10:38;26.40;46.80
18177;DHT22;9213;50.858;3.964;2023-09-18T15:13:06;26.40;46.40
18177;DHT22;9213;50.858;3.964;2023-09-18T15:15:33;26.40;46.20
18177;DHT22;9213;50.858;3.964;2023-09-18T15:18:01;26.30;45.90
18177;DHT22;9213;50.858;3.964;2023-09-18T15:20:28;26.20;46.10
18177;DHT22;9213;50.858;3.964;2023-09-18T15:22:55;26.10;46.60
18177;DHT22;9213;50.858;3.964;2023-09-18T15:25:22;25.90;46.20
18177;DHT22;9213;50.858;3.964;2023-09-18T15:27:50;25.90;46.20
18177;DHT22;9213;50.858;3.964;2023-09-18T15:30:17;25.90;47.20
18177;DHT22;9213;50.858;3.964;2023-09-18T15:32:48;25.90;47.20
18177;DHT22;9213;50.858;3.964;2023-09-18T15:35:16;26.00;47.50
18177;DHT22;9213;50.858;3.964;2023-09-18T15:37:43;26.10;47.50
18177;DHT22;9213;50.858;3.964;2023-09-18T15:40:11;26.20;46.70
18177;DHT22;9213;50.858;3.964;2023-09-18T15:42:38;26.30;46.80
18177;DHT22;9213;50.858;3.964;2023-09-18T15:45:08;26.40;45.80
18177;DHT22;9213;50.858;3.964;2023-09-18T15:47:36;26.40;45.40
18177;DHT22;9213;50.858;3.964;2023-09-18T15:50:04;26.40;45.50
18177;DHT22;9213;50.858;3.964;2023-09-18T15:52:31;26.30;45.40
18177;DHT22;9213;50.858;3.964;2023-09-18T15:54:58;26.30;45.60